sensor_id;sensor_type;location;lat;lon;timestamp;pressure;altitude;pressure_sealevel;temperature;humidity
29371;BME280;16357;52.188;7.838;2023-09-12T00:01:23;100677.53;;;22.96;67.11
29371;BME280;16357;52.188;7.838;2023-09-12T00:03:50;100697.78;;;22.95;67.53
29371;BME280;16357;52.188;7.838;2023-09-12T00:06:17;100654.81;;;22.95;67.69
29371;BME280;16357;52.188;7.838;2023-09-12T00:08:43;100604.41;;;22.91;68.95
29371;BME280;16357;52.188;7.838;2023-09-12T00:11:10;100629.75;;;22.87;70.20
29371;BME280;16357;52.188;7.838;2023-09-12T00:13:38;100642.97;;;22.78;71.22
29371;BME280;16357;52.188;7.838;2023-09-12T00:16:06;100657.84;;;22.70;72.54
29371;BME280;16357;52.188;7.838;2023-09-12T00:18:32;100661.50;;;22.64;73.61
29371;BME280;16357;52.188;7.838;2023-09-12T00:21:02;100656.78;;;22.60;73.52
29371;BME280;16357;52.188;7.838;2023-09-12T00:23:29;100641.91;;;22.55;74.30
29371;BME280;16357;52.188;7.838;2023-09-12T00:25:56;100631.44;;;22.52;74.29
29371;BME280;16357;52.188;7.838;2023-09-12T00:28:23;100615.75;;;22.48;74.61
29371;BME280;16357;52.188;7.838;2023-09-12T00:30:51;100618.97;;;22.45;75.03
29371;BME280;16357;52.188;7.838;2023-09-12T00:33:17;100624.09;;;22.41;75.77
29371;BME280;16357;52.188;7.838;2023-09-12T00:35:44;100635.25;;;22.40;76.62
29371;BME280;16357;52.188;7.838;2023-09-12T00:38:11;100627.66;;;22.42;77.29
29371;BME280;16357;52.188;7.838;2023-09-12T00:40:37;100621.69;;;22.45;78.12
29371;BME280;16357;52.188;7.838;2023-09-12T00:43:04;100621.00;;;22.49;77.98
29371;BME280;16357;52.188;7.838;2023-09-12T00:45:31;100600.53;;;22.52;78.10
29371;BME280;16357;52.188;7.838;2023-09-12T00:47:58;100593.28;;;22.57;78.04
29371;BME280;16357;52.188;7.838;2023-09-12T00:50:26;100594.44;;;22.62;78.28
29371;BME280;16357;52.188;7.838;2023-09-12T00:52:54;100603.03;;;22.65;78.47
29371;BME280;16357;52.188;7.838;2023-09-12T00:55:21;100599.56;;;22.70;78.20
29371;BME280;16357;52.188;7.838;2023-09-12T00:57:47;100590.06;;;22.72;77.80
29371;BME280;16357;52.188;7.838;2023-09-12T01:00:14;100603.25;;;22.75;78.19
29371;BME280;16357;52.188;7.838;2023-09-12T01:02:43;100601.09;;;22.77;78.37
29371;BME280;16357;52.188;7.838;2023-09-12T01:05:11;100611.31;;;22.82;77.98
29371;BME280;16357;52.188;7.838;2023-09-12T01:07:38;100609.41;;;22.83;77.54
29371;BME280;16357;52.188;7.838;2023-09-12T01:10:06;100613.81;;;22.84;77.29
29371;BME280;16357;52.188;7.838;2023-09-12T01:12:33;100620.13;;;22.84;77.22
29371;BME280;16357;52.188;7.838;2023-09-12T01:14:59;100608.34;;;22.84;76.90
29371;BME280;16357;52.188;7.838;2023-09-12T01:17:27;100565.63;;;22.83;77.25
29371;BME280;16357;52.188;7.838;2023-09-12T01:19:54;100546.50;;;22.83;77.12
29371;BME280;16357;52.188;7.838;2023-09-12T01:25:56;100530.34;;;22.81;76.30
29371;BME280;16357;52.188;7.838;2023-09-12T01:28:16;100535.44;;;22.77;75.91
29371;BME280;16357;52.188;7.838;2023-09-12T01:30:45;100594.22;;;22.75;75.54
29371;BME280;16357;52.188;7.838;2023-09-12T01:33:12;100662.22;;;22.71;76.15
29371;BME280;16357;52.188;7.838;2023-09-12T01:35:38;100682.94;;;22.67;76.02
29371;BME280;16357;52.188;7.838;2023-09-12T01:38:05;100697.06;;;22.64;75.79
29371;BME280;16357;52.188;7.838;2023-09-12T01:40:35;100733.34;;;22.60;75.48
29371;BME280;16357;52.188;7.838;2023-09-12T01:43:06;100764.13;;;22.55;75.85
29371;BME280;16357;52.188;7.838;2023-09-12T01:45:35;100754.47;;;22.52;75.81
29371;BME280;16357;52.188;7.838;2023-09-12T01:48:04;100771.59;;;22.48;75.06
29371;BME280;16357;52.188;7.838;2023-09-12T01:50:32;100782.16;;;22.44;74.96
29371;BME280;16357;52.188;7.838;2023-09-12T01:52:59;100773.56;;;22.41;75.07
29371;BME280;16357;52.188;7.838;2023-09-12T01:55:26;100740.44;;;22.37;74.98
29371;BME280;16357;52.188;7.838;2023-09-12T01:57:53;100686.22;;;22.34;74.60
29371;BME280;16357;52.188;7.838;2023-09-12T02:00:20;100632.25;;;22.29;74.04
29371;BME280;16357;52.188;7.838;2023-09-12T02:02:47;100606.13;;;22.22;74.02
29371;BME280;16357;52.188;7.838;2023-09-12T02:05:16;100573.44;;;22.15;73.48
29371;BME280;16357;52.188;7.838;2023-09-12T02:07:45;100612.03;;;22.07;73.62
29371;BME280;16357;52.188;7.838;2023-09-12T02:10:12;100631.25;;;22.00;73.81
29371;BME280;16357;52.188;7.838;2023-09-12T02:12:39;100613.91;;;21.95;74.21
29371;BME280;16357;52.188;7.838;2023-09-12T02:15:06;100592.75;;;21.90;74.87
29371;BME280;16357;52.188;7.838;2023-09-12T02:17:33;100576.84;;;21.87;74.59
29371;BME280;16357;52.188;7.838;2023-09-12T02:20:00;100590.75;;;21.85;74.15
29371;BME280;16357;52.188;7.838;2023-09-12T02:22:26;100580.25;;;21.82;73.78
29371;BME280;16357;52.188;7.838;2023-09-12T02:24:53;100582.41;;;21.80;73.64
29371;BME280;16357;52.188;7.838;2023-09-12T02:27:19;100571.13;;;21.77;73.78
29371;BME280;16357;52.188;7.838;2023-09-12T02:29:46;100563.19;;;21.75;73.66
29371;BME280;16357;52.188;7.838;2023-09-12T02:32:12;100569.06;;;21.72;73.63
29371;BME280;16357;52.188;7.838;2023-09-12T02:34:38;100577.53;;;21.70;73.90
29371;BME280;16357;52.188;7.838;2023-09-12T02:37:05;100565.16;;;21.68;74.46
29371;BME280;16357;52.188;7.838;2023-09-12T02:39:31;100553.16;;;21.69;74.01
29371;BME280;16357;52.188;7.838;2023-09-12T02:41:58;100553.16;;;21.69;74.32
29371;BME280;16357;52.188;7.838;2023-09-12T02:44:24;100539.50;;;21.69;73.87
29371;BME280;16357;52.188;7.838;2023-09-12T02:46:51;100531.31;;;21.69;73.13
29371;BME280;16357;52.188;7.838;2023-09-12T02:49:17;100529.69;;;21.68;73.23
29371;BME280;16357;52.188;7.838;2023-09-12T02:51:45;100530.50;;;21.68;73.29
29371;BME280;16357;52.188;7.838;2023-09-12T02:54:11;100508.66;;;21.68;73.49
29371;BME280;16357;52.188;7.838;2023-09-12T02:56:38;100491.44;;;21.68;73.49
29371;BME280;16357;52.188;7.838;2023-09-12T02:59:04;100501.53;;;21.67;73.44
29371;BME280;16357;52.188;7.838;2023-09-12T03:01:31;100509.47;;;21.69;73.77
29371;BME280;16357;52.188;7.838;2023-09-12T03:03:58;100506.53;;;21.70;73.87
29371;BME280;16357;52.188;7.838;2023-09-12T03:06:24;100509.84;;;21.73;74.18
29371;BME280;16357;52.188;7.838;2023-09-12T03:08:51;100511.28;;;21.75;74.50
29371;BME280;16357;52.188;7.838;2023-09-12T03:11:17;100510.22;;;21.76;74.56
29371;BME280;16357;52.188;7.838;2023-09-12T03:13:44;100526.13;;;21.79;73.87
29371;BME280;16357;52.188;7.838;2023-09-12T03:16:11;100542.28;;;21.81;73.83
29371;BME280;16357;52.188;7.838;2023-09-12T03:18:38;100564.97;;;21.81;73.90
29371;BME280;16357;52.188;7.838;2023-09-12T03:21:04;100580.25;;;21.82;73.35
29371;BME280;16357;52.188;7.838;2023-09-12T03:23:31;100585.72;;;21.82;73.38
29371;BME280;16357;52.188;7.838;2023-09-12T03:26:05;100574.56;;;21.84;73.07
29371;BME280;16357;52.188;7.838;2023-09-12T03:28:32;100566.03;;;21.80;73.20
29371;BME280;16357;52.188;7.838;2023-09-12T03:31:10;100552.13;;;21.82;72.97
29371;BME280;16357;52.188;7.838;2023-09-12T03:33:42;100566.84;;;21.81;72.87
29371;BME280;16357;52.188;7.838;2023-09-12T03:36:09;100574.44;;;21.79;72.88
29371;BME280;16357;52.188;7.838;2023-09-12T03:38:35;100574.44;;;21.79;72.97
29371;BME280;16357;52.188;7.838;2023-09-12T03:41:02;100574.22;;;21.80;73.01
29371;BME280;16357;52.188;7.838;2023-09-12T03:43:29;100564.13;;;21.81;72.70
29371;BME280;16357;52.188;7.838;2023-09-12T03:45:56;100551.31;;;21.81;72.19
29371;BME280;16357;52.188;7.838;2023-09-12T03:48:22;100522.34;;;21.80;72.13
29371;BME280;16357;52.188;7.838;2023-09-12T03:50:49;100521.47;;;21.80;72.24
29371;BME280;16357;52.188;7.838;2023-09-12T03:53:15;100517.94;;;21.79;71.96
29371;BME280;16357;52.188;7.838;2023-09-12T03:55:42;100512.72;;;21.78;72.25
29371;BME280;16357;52.188;7.838;2023-09-12T03:58:09;100511.03;;;21.77;72.15
29371;BME280;16357;52.188;7.838;2023-09-12T04:00:36;100535.88;;;21.75;72.24
29371;BME280;16357;52.188;7.838;2023-09-12T04:03:02;100559.84;;;21.73;72.17
29371;BME280;16357;52.188;7.838;2023-09-12T04:05:29;100560.06;;;21.72;72.26
29371;BME280;16357;52.188;7.838;2023-09-12T04:07:55;100572.06;;;21.70;72.28
29371;BME280;16357;52.188;7.838;2023-09-12T04:10:22;100594.13;;;21.69;72.50
29371;BME280;16357;52.188;7.838;2023-09-12T04:12:48;100577.16;;;21.67;71.89
29371;BME280;16357;52.188;7.838;2023-09-12T04:15:15;100562.91;;;21.65;72.05
29371;BME280;16357;52.188;7.838;2023-09-12T04:17:42;100547.56;;;21.64;72.05
29371;BME280;16357;52.188;7.838;2023-09-12T04:20:08;100546.16;;;21.61;72.22
29371;BME280;16357;52.188;7.838;2023-09-12T04:22:35;100537.38;;;21.59;72.45
29371;BME280;16357;52.188;7.838;2023-09-12T04:25:01;100532.16;;;21.58;72.48
29371;BME280;16357;52.188;7.838;2023-09-12T04:27:27;100543.06;;;21.58;72.68
29371;BME280;16357;52.188;7.838;2023-09-12T04:29:54;100526.69;;;21.58;72.75
29371;BME280;16357;52.188;7.838;2023-09-12T04:32:20;100497.47;;;21.58;72.59
29371;BME280;16357;52.188;7.838;2023-09-12T04:34:50;100492.84;;;21.59;72.44
29371;BME280;16357;52.188;7.838;2023-09-12T04:37:17;100508.41;;;21.58;72.19
29371;BME280;16357;52.188;7.838;2023-09-12T04:39:45;100537.59;;;21.58;72.44
29371;BME280;16357;52.188;7.838;2023-09-12T04:42:11;100552.34;;;21.57;72.60
29371;BME280;16357;52.188;7.838;2023-09-12T04:44:40;100533.22;;;21.57;72.62
29371;BME280;16357;52.188;7.838;2023-09-12T04:47:07;100505.06;;;21.56;72.45
29371;BME280;16357;52.188;7.838;2023-09-12T04:49:34;100509.69;;;21.56;72.33
29371;BME280;16357;52.188;7.838;2023-09-12T04:52:00;100549.00;;;21.55;72.17
29371;BME280;16357;52.188;7.838;2023-09-12T04:54:27;100539.97;;;21.54;71.86
29371;BME280;16357;52.188;7.838;2023-09-12T04:56:53;100533.09;;;21.52;72.09
29371;BME280;16357;52.188;7.838;2023-09-12T04:59:20;100538.56;;;21.52;72.33
29371;BME280;16357;52.188;7.838;2023-09-12T05:01:46;100546.75;;;21.52;72.50
29371;BME280;16357;52.188;7.838;2023-09-12T05:04:13;100544.00;;;21.52;72.48
29371;BME280;16357;52.188;7.838;2023-09-12T05:06:40;100534.97;;;21.51;72.13
29371;BME280;16357;52.188;7.838;2023-09-12T05:09:06;100530.34;;;21.52;71.77
29371;BME280;16357;52.188;7.838;2023-09-12T05:11:35;100534.38;;;21.49;72.11
29371;BME280;16357;52.188;7.838;2023-09-12T05:14:01;100540.06;;;21.47;72.53
29371;BME280;16357;52.188;7.838;2023-09-12T05:16:30;100549.09;;;21.48;72.25
29371;BME280;16357;52.188;7.838;2023-09-12T05:18:56;100552.06;;;21.46;72.30
29371;BME280;16357;52.188;7.838;2023-09-12T05:21:23;100569.50;;;21.45;72.18
29371;BME280;16357;52.188;7.838;2023-09-12T05:23:50;100568.66;;;21.45;72.22
29371;BME280;16357;52.188;7.838;2023-09-12T05:26:16;100562.38;;;21.44;71.91
29371;BME280;16357;52.188;7.838;2023-09-12T05:28:43;100563.44;;;21.43;72.28
29371;BME280;16357;52.188;7.838;2023-09-12T05:31:09;100561.78;;;21.42;72.28
29371;BME280;16357;52.188;7.838;2023-09-12T05:33:36;100546.47;;;21.41;71.80
29371;BME280;16357;52.188;7.838;2023-09-12T05:36:03;100554.66;;;21.41;72.06
29371;BME280;16357;52.188;7.838;2023-09-12T05:38:30;100548.59;;;21.39;72.30
29371;BME280;16357;52.188;7.838;2023-09-12T05:40:56;100557.84;;;21.38;72.12
29371;BME280;16357;52.188;7.838;2023-09-12T05:43:23;100568.97;;;21.37;71.88
29371;BME280;16357;52.188;7.838;2023-09-12T05:45:49;100558.25;;;21.35;71.87
29371;BME280;16357;52.188;7.838;2023-09-12T05:48:16;100562.06;;;21.34;71.93
29371;BME280;16357;52.188;7.838;2023-09-12T05:50:43;100552.44;;;21.32;71.79
29371;BME280;16357;52.188;7.838;2023-09-12T05:53:10;100556.47;;;21.29;71.41
29371;BME280;16357;52.188;7.838;2023-09-12T05:55:37;100561.31;;;21.27;72.34
29371;BME280;16357;52.188;7.838;2023-09-12T05:58:04;100560.50;;;21.26;72.08
29371;BME280;16357;52.188;7.838;2023-09-12T06:00:32;100551.47;;;21.26;72.51
29371;BME280;16357;52.188;7.838;2023-09-12T06:02:59;100547.09;;;21.25;72.62
29371;BME280;16357;52.188;7.838;2023-09-12T06:05:26;100540.78;;;21.24;72.40
29371;BME280;16357;52.188;7.838;2023-09-12T06:07:52;100543.50;;;21.24;72.62
29371;BME280;16357;52.188;7.838;2023-09-12T06:10:19;100523.59;;;21.24;72.41
29371;BME280;16357;52.188;7.838;2023-09-12T06:12:45;100515.41;;;21.24;72.15
29371;BME280;16357;52.188;7.838;2023-09-12T06:15:12;100508.03;;;21.24;72.25
29371;BME280;16357;52.188;7.838;2023-09-12T06:17:38;100511.84;;;21.23;71.96
29371;BME280;16357;52.188;7.838;2023-09-12T06:20:05;100517.53;;;21.22;72.41
29371;BME280;16357;52.188;7.838;2023-09-12T06:22:33;100526.56;;;21.22;72.32
29371;BME280;16357;52.188;7.838;2023-09-12T06:25:00;100522.97;;;21.22;72.33
29371;BME280;16357;52.188;7.838;2023-09-12T06:27:27;100530.34;;;21.21;72.28
29371;BME280;16357;52.188;7.838;2023-09-12T06:29:53;100541.25;;;21.21;72.28
29371;BME280;16357;52.188;7.838;2023-09-12T06:32:19;100545.66;;;21.22;72.31
29371;BME280;16357;52.188;7.838;2023-09-12T06:34:46;100548.16;;;21.24;72.51
29371;BME280;16357;52.188;7.838;2023-09-12T06:37:13;100547.94;;;21.25;72.83
29371;BME280;16357;52.188;7.838;2023-09-12T06:39:40;100567.63;;;21.27;73.14
29371;BME280;16357;52.188;7.838;2023-09-12T06:42:06;100586.28;;;21.31;73.11
29371;BME280;16357;52.188;7.838;2023-09-12T06:44:33;100595.66;;;21.35;72.94
29371;BME280;16357;52.188;7.838;2023-09-12T06:46:59;100612.44;;;21.38;72.91
29371;BME280;16357;52.188;7.838;2023-09-12T06:49:25;100614.69;;;21.41;72.85
29371;BME280;16357;52.188;7.838;2023-09-12T06:51:52;100619.91;;;21.43;72.43
29371;BME280;16357;52.188;7.838;2023-09-12T06:54:18;100623.25;;;21.45;72.14
29371;BME280;16357;52.188;7.838;2023-09-12T06:56:45;100632.03;;;21.47;72.30
29371;BME280;16357;52.188;7.838;2023-09-12T06:59:11;100663.72;;;21.48;72.20
29371;BME280;16357;52.188;7.838;2023-09-12T07:01:38;100690.81;;;21.50;72.03
29371;BME280;16357;52.188;7.838;2023-09-12T07:04:04;100694.00;;;21.46;71.53
29371;BME280;16357;52.188;7.838;2023-09-12T07:06:31;100701.38;;;21.46;72.22
29371;BME280;16357;52.188;7.838;2023-09-12T07:08:59;100704.31;;;21.44;71.98
29371;BME280;16357;52.188;7.838;2023-09-12T07:11:26;100706.44;;;21.42;72.16
29371;BME280;16357;52.188;7.838;2023-09-12T07:13:52;100697.41;;;21.42;72.27
29371;BME280;16357;52.188;7.838;2023-09-12T07:16:19;100698.47;;;21.41;72.27
29371;BME280;16357;52.188;7.838;2023-09-12T07:18:48;100678.53;;;21.40;72.46
29371;BME280;16357;52.188;7.838;2023-09-12T07:21:16;100650.19;;;21.41;72.32
29371;BME280;16357;52.188;7.838;2023-09-12T07:23:43;100637.56;;;21.40;72.43
29371;BME280;16357;52.188;7.838;2023-09-12T07:26:13;100611.38;;;21.39;71.69
29371;BME280;16357;52.188;7.838;2023-09-12T07:28:41;100577.63;;;21.34;71.51
29371;BME280;16357;52.188;7.838;2023-09-12T07:31:07;100578.91;;;21.31;72.04
29371;BME280;16357;52.188;7.838;2023-09-12T07:33:34;100604.97;;;21.27;71.99
29371;BME280;16357;52.188;7.838;2023-09-12T07:36:00;100610.06;;;21.23;72.36
29371;BME280;16357;52.188;7.838;2023-09-12T07:38:29;100613.03;;;21.22;72.37
29371;BME280;16357;52.188;7.838;2023-09-12T07:40:58;100635.09;;;21.20;72.83
29371;BME280;16357;52.188;7.838;2023-09-12T07:43:25;100663.22;;;21.21;72.92
29371;BME280;16357;52.188;7.838;2023-09-12T07:45:55;100680.19;;;21.23;73.13
29371;BME280;16357;52.188;7.838;2023-09-12T07:48:22;100687.31;;;21.24;73.47
29371;BME280;16357;52.188;7.838;2023-09-12T07:50:48;100695.28;;;21.25;73.64
29371;BME280;16357;52.188;7.838;2023-09-12T07:53:15;100717.72;;;21.27;73.58
29371;BME280;16357;52.188;7.838;2023-09-12T07:55:41;100727.09;;;21.32;73.29
29371;BME280;16357;52.188;7.838;2023-09-12T07:58:16;100721.44;;;21.33;73.29
29371;BME280;16357;52.188;7.838;2023-09-12T08:00:45;100734.00;;;21.34;73.30
29371;BME280;16357;52.188;7.838;2023-09-12T08:03:12;100743.84;;;21.35;73.30
29371;BME280;16357;52.188;7.838;2023-09-12T08:05:39;100741.72;;;21.37;73.46
29371;BME280;16357;52.188;7.838;2023-09-12T08:08:05;100740.47;;;21.40;73.11
29371;BME280;16357;52.188;7.838;2023-09-12T08:10:32;100694.91;;;21.40;73.16
29371;BME280;16357;52.188;7.838;2023-09-12T08:12:59;100674.75;;;21.41;72.58
29371;BME280;16357;52.188;7.838;2023-09-12T08:15:25;100675.78;;;21.40;72.55
29371;BME280;16357;52.188;7.838;2023-09-12T08:17:53;100668.69;;;21.39;72.76
29371;BME280;16357;52.188;7.838;2023-09-12T08:20:20;100641.81;;;21.36;72.83
29371;BME280;16357;52.188;7.838;2023-09-12T08:22:47;100639.31;;;21.35;73.16
29371;BME280;16357;52.188;7.838;2023-09-12T08:25:14;100631.38;;;21.33;73.37
29371;BME280;16357;52.188;7.838;2023-09-12T08:27:41;100630.50;;;21.33;73.75
29371;BME280;16357;52.188;7.838;2023-09-12T08:30:11;100641.22;;;21.34;74.20
29371;BME280;16357;52.188;7.838;2023-09-12T08:32:40;100646.44;;;21.36;73.88
29371;BME280;16357;52.188;7.838;2023-09-12T08:35:13;100646.84;;;21.39;73.97
29371;BME280;16357;52.188;7.838;2023-09-12T08:37:40;100637.38;;;21.42;73.89
29371;BME280;16357;52.188;7.838;2023-09-12T08:40:11;100642.34;;;21.45;73.85
29371;BME280;16357;52.188;7.838;2023-09-12T08:42:42;100656.97;;;21.51;73.63
29371;BME280;16357;52.188;7.838;2023-09-12T08:45:17;100641.19;;;21.53;73.29
29371;BME280;16357;52.188;7.838;2023-09-12T08:47:46;100640.13;;;21.54;73.72
29371;BME280;16357;52.188;7.838;2023-09-12T08:50:15;100649.53;;;21.58;73.53
29371;BME280;16357;52.188;7.838;2023-09-12T08:52:44;100655.59;;;21.60;73.64
29371;BME280;16357;52.188;7.838;2023-09-12T08:55:31;100629.47;;;21.64;73.49
29371;BME280;16357;52.188;7.838;2023-09-12T08:57:59;100601.75;;;21.67;73.29
29371;BME280;16357;52.188;7.838;2023-09-12T09:00:29;100582.63;;;21.67;72.99
29371;BME280;16357;52.188;7.838;2023-09-12T09:02:56;100602.31;;;21.69;73.21
29371;BME280;16357;52.188;7.838;2023-09-12T09:05:24;100637.00;;;21.68;73.45
29371;BME280;16357;52.188;7.838;2023-09-12T09:07:51;100639.50;;;21.70;73.39
29371;BME280;16357;52.188;7.838;2023-09-12T09:10:19;100653.16;;;21.70;73.32
29371;BME280;16357;52.188;7.838;2023-09-12T09:13:08;100664.66;;;21.72;73.04
29371;BME280;16357;52.188;7.838;2023-09-12T09:15:36;100640.06;;;21.72;73.16
29371;BME280;16357;52.188;7.838;2023-09-12T09:18:04;100651.84;;;21.73;73.32
29371;BME280;16357;52.188;7.838;2023-09-12T09:20:33;100657.06;;;21.74;72.95
29371;BME280;16357;52.188;7.838;2023-09-12T09:23:05;100658.50;;;21.77;72.83
29371;BME280;16357;52.188;7.838;2023-09-12T09:25:32;100658.28;;;21.78;73.27
29371;BME280;16357;52.188;7.838;2023-09-12T09:28:03;100659.47;;;21.82;73.16
29371;BME280;16357;52.188;7.838;2023-09-12T09:30:41;100665.31;;;21.86;72.98
29371;BME280;16357;52.188;7.838;2023-09-12T09:33:09;100677.66;;;21.88;73.32
29371;BME280;16357;52.188;7.838;2023-09-12T09:35:36;100676.13;;;21.92;73.38
29371;BME280;16357;52.188;7.838;2023-09-12T09:38:03;100672.47;;;21.99;73.47
29371;BME280;16357;52.188;7.838;2023-09-12T09:40:32;100675.34;;;22.04;73.62
29371;BME280;16357;52.188;7.838;2023-09-12T09:43:00;100672.28;;;22.12;73.70
29371;BME280;16357;52.188;7.838;2023-09-12T09:45:28;100668.41;;;22.20;73.91
29371;BME280;16357;52.188;7.838;2023-09-12T09:47:59;100674.94;;;22.30;73.70
29371;BME280;16357;52.188;7.838;2023-09-12T09:50:30;100679.81;;;22.40;73.52
29371;BME280;16357;52.188;7.838;2023-09-12T09:52:56;100676.50;;;22.50;73.27
29371;BME280;16357;52.188;7.838;2023-09-12T09:55:23;100675.66;;;22.61;73.63
29371;BME280;16357;52.188;7.838;2023-09-12T09:57:50;100687.22;;;22.75;73.42
29371;BME280;16357;52.188;7.838;2023-09-12T10:00:21;100693.75;;;22.86;72.85
29371;BME280;16357;52.188;7.838;2023-09-12T10:02:49;100692.09;;;22.96;72.73
29371;BME280;16357;52.188;7.838;2023-09-12T10:05:17;100687.69;;;23.07;72.58
29371;BME280;16357;52.188;7.838;2023-09-12T10:07:47;100683.25;;;23.18;71.88
29371;BME280;16357;52.188;7.838;2023-09-12T10:10:16;100675.25;;;23.28;71.80
29371;BME280;16357;52.188;7.838;2023-09-12T10:12:50;100674.97;;;23.41;72.37
29371;BME280;16357;52.188;7.838;2023-09-12T10:15:19;100676.59;;;23.54;72.15
29371;BME280;16357;52.188;7.838;2023-09-12T10:17:55;100682.97;;;23.72;71.84
29371;BME280;16357;52.188;7.838;2023-09-12T10:20:26;100675.06;;;23.87;71.07
29371;BME280;16357;52.188;7.838;2023-09-12T10:23:08;100667.69;;;24.04;70.50
29371;BME280;16357;52.188;7.838;2023-09-12T10:25:38;100664.03;;;24.16;70.38
29371;BME280;16357;52.188;7.838;2023-09-12T10:28:05;100666.44;;;24.29;68.86
29371;BME280;16357;52.188;7.838;2023-09-12T10:30:35;100672.09;;;24.39;68.36
29371;BME280;16357;52.188;7.838;2023-09-12T10:33:02;100685.19;;;24.49;68.27
29371;BME280;16357;52.188;7.838;2023-09-12T10:35:31;100684.50;;;24.59;68.46
29371;BME280;16357;52.188;7.838;2023-09-12T10:38:00;100683.81;;;24.68;67.86
29371;BME280;16357;52.188;7.838;2023-09-12T10:40:31;100688.66;;;24.78;67.94
29371;BME280;16357;52.188;7.838;2023-09-12T10:42:59;100681.63;;;24.87;67.56
29371;BME280;16357;52.188;7.838;2023-09-12T10:45:27;100678.44;;;24.95;67.06
29371;BME280;16357;52.188;7.838;2023-09-12T10:47:55;100679.09;;;25.03;66.33
29371;BME280;16357;52.188;7.838;2023-09-12T10:50:21;100677.56;;;25.12;66.49
29371;BME280;16357;52.188;7.838;2023-09-12T10:52:48;100681.56;;;25.21;65.66
29371;BME280;16357;52.188;7.838;2023-09-12T10:55:17;100680.59;;;25.32;65.74
29371;BME280;16357;52.188;7.838;2023-09-12T10:58:00;100688.97;;;25.43;64.79
29371;BME280;16357;52.188;7.838;2023-09-12T11:00:29;100692.34;;;25.50;63.86
29371;BME280;16357;52.188;7.838;2023-09-12T11:02:55;100680.09;;;25.57;63.12
29371;BME280;16357;52.188;7.838;2023-09-12T11:07:58;100677.75;;;25.71;63.53
29371;BME280;16357;52.188;7.838;2023-09-12T11:10:26;100692.66;;;25.75;63.05
29371;BME280;16357;52.188;7.838;2023-09-12T11:12:56;100691.84;;;25.80;63.10
29371;BME280;16357;52.188;7.838;2023-09-12T11:15:26;100688.09;;;25.86;62.94
29371;BME280;16357;52.188;7.838;2023-09-12T11:18:03;100681.88;;;25.96;62.74
29371;BME280;16357;52.188;7.838;2023-09-12T11:23:16;100688.34;;;26.12;61.58
29371;BME280;16357;52.188;7.838;2023-09-12T11:25:43;100688.72;;;26.20;61.97
29371;BME280;16357;52.188;7.838;2023-09-12T11:28:09;100682.97;;;26.27;61.57
29371;BME280;16357;52.188;7.838;2023-09-12T11:30:36;100684.69;;;26.33;60.81
29371;BME280;16357;52.188;7.838;2023-09-12T11:33:04;100685.81;;;26.37;60.43
29371;BME280;16357;52.188;7.838;2023-09-12T11:35:36;100681.16;;;26.43;60.64
29371;BME280;16357;52.188;7.838;2023-09-12T11:38:09;100683.97;;;26.48;60.48
29371;BME280;16357;52.188;7.838;2023-09-12T11:43:02;100664.81;;;26.58;60.01
29371;BME280;16357;52.188;7.838;2023-09-12T11:45:29;100660.16;;;26.64;59.47
29371;BME280;16357;52.188;7.838;2023-09-12T11:47:57;100662.13;;;26.68;58.42
29371;BME280;16357;52.188;7.838;2023-09-12T11:50:32;100656.09;;;26.71;58.54
29371;BME280;16357;52.188;7.838;2023-09-12T11:53:06;100652.25;;;26.73;58.62
29371;BME280;16357;52.188;7.838;2023-09-12T11:55:42;100650.56;;;26.71;58.50
29371;BME280;16357;52.188;7.838;2023-09-12T11:58:10;100655.25;;;26.71;58.09
29371;BME280;16357;52.188;7.838;2023-09-12T12:00:43;100649.22;;;26.74;58.43
29371;BME280;16357;52.188;7.838;2023-09-12T12:03:10;100646.75;;;26.78;58.40
29371;BME280;16357;52.188;7.838;2023-09-12T12:05:36;100638.28;;;26.84;58.15
29371;BME280;16357;52.188;7.838;2023-09-12T12:08:13;100643.00;;;26.94;57.93
29371;BME280;16357;52.188;7.838;2023-09-12T12:10:57;100639.75;;;27.02;57.23
29371;BME280;16357;52.188;7.838;2023-09-12T12:13:27;100636.47;;;27.10;57.58
29371;BME280;16357;52.188;7.838;2023-09-12T12:15:55;100634.88;;;27.20;57.26
29371;BME280;16357;52.188;7.838;2023-09-12T12:18:22;100629.38;;;27.30;57.19
29371;BME280;16357;52.188;7.838;2023-09-12T12:20:49;100634.94;;;27.40;56.84
29371;BME280;16357;52.188;7.838;2023-09-12T12:23:15;100623.41;;;27.53;56.53
29371;BME280;16357;52.188;7.838;2023-09-12T12:25:42;100618.72;;;27.64;55.80
29371;BME280;16357;52.188;7.838;2023-09-12T12:28:08;100615.41;;;27.72;55.75
29371;BME280;16357;52.188;7.838;2023-09-12T12:30:35;100616.28;;;27.78;54.79
29371;BME280;16357;52.188;7.838;2023-09-12T12:33:08;100613.00;;;27.81;54.66
29371;BME280;16357;52.188;7.838;2023-09-12T12:36:02;100618.53;;;27.81;54.53
29371;BME280;16357;52.188;7.838;2023-09-12T12:38:39;100611.03;;;27.76;54.36
29371;BME280;16357;52.188;7.838;2023-09-12T12:41:30;100603.56;;;27.72;54.00
29371;BME280;16357;52.188;7.838;2023-09-12T12:44:11;100605.75;;;27.65;54.58
29371;BME280;16357;52.188;7.838;2023-09-12T12:46:50;100607.69;;;27.59;54.74
29371;BME280;16357;52.188;7.838;2023-09-12T12:49:16;100599.69;;;27.52;54.68
29371;BME280;16357;52.188;7.838;2023-09-12T12:51:43;100594.19;;;27.47;54.46
29371;BME280;16357;52.188;7.838;2023-09-12T12:54:13;100592.78;;;27.45;54.44
29371;BME280;16357;52.188;7.838;2023-09-12T12:56:40;100592.22;;;27.43;54.47
29371;BME280;16357;52.188;7.838;2023-09-12T12:59:07;100595.81;;;27.43;54.78
29371;BME280;16357;52.188;7.838;2023-09-12T13:01:36;100583.72;;;27.44;55.09
29371;BME280;16357;52.188;7.838;2023-09-12T13:04:09;100587.56;;;27.48;55.16
29371;BME280;16357;52.188;7.838;2023-09-12T13:06:36;100587.84;;;27.52;55.29